createdAt,value
2018-10-16T00:00:18.253Z,15.80
2018-10-16T00:02:47.269Z,15.70
2018-10-16T00:05:16.552Z,15.70
2018-10-16T00:07:45.079Z,15.70
2018-10-16T00:10:13.611Z,15.60
2018-10-16T00:12:42.074Z,15.60
2018-10-16T00:15:10.945Z,15.70
2018-10-16T00:17:39.446Z,15.60
2018-10-16T00:20:08.038Z,15.60
2018-10-16T00:22:36.600Z,15.60
2018-10-16T00:25:05.571Z,15.60
2018-10-16T00:27:34.061Z,15.50
2018-10-16T00:30:02.544Z,15.50
2018-10-16T00:32:31.050Z,15.50
2018-10-16T00:34:59.539Z,15.40
2018-10-16T00:37:27.983Z,15.40
2018-10-16T00:39:56.450Z,15.50
2018-10-16T00:42:24.900Z,15.30
2018-10-16T00:44:53.346Z,15.30
2018-10-16T00:47:21.871Z,15.10
2018-10-16T00:49:50.363Z,15.20
2018-10-16T00:52:18.851Z,15.30
2018-10-16T00:54:47.359Z,15.20
2018-10-16T00:57:15.807Z,15.20
2018-10-16T00:59:44.278Z,15.20
2018-10-16T01:02:12.739Z,15.10
2018-10-16T01:04:41.244Z,15.10
2018-10-16T01:07:09.741Z,15.10
2018-10-16T01:09:38.207Z,15.10
2018-10-16T01:12:06.681Z,15.10
2018-10-16T01:14:35.151Z,15.10
2018-10-16T01:17:03.635Z,15.00
2018-10-16T01:19:32.130Z,15.00
2018-10-16T01:22:00.600Z,15.00
2018-10-16T01:24:29.142Z,15.00
2018-10-16T01:26:57.581Z,15.00
2018-10-16T01:29:26.043Z,15.10
2018-10-16T01:31:54.495Z,15.10
2018-10-16T01:34:22.987Z,15.00
2018-10-16T01:36:51.488Z,15.10
2018-10-16T01:39:19.958Z,15.10
2018-10-16T01:41:48.426Z,15.10
2018-10-16T01:44:16.876Z,15.00
2018-10-16T01:46:45.359Z,15.00
2018-10-16T01:49:13.785Z,15.00
2018-10-16T01:51:42.217Z,14.90
2018-10-16T01:54:10.747Z,14.90
2018-10-16T01:56:39.240Z,14.90
2018-10-16T01:59:07.710Z,14.90
2018-10-16T02:01:36.220Z,14.90
2018-10-16T02:04:04.700Z,14.90
2018-10-16T02:06:33.159Z,14.80
2018-10-16T02:09:01.663Z,14.80
2018-10-16T02:11:30.113Z,14.80
2018-10-16T02:13:58.649Z,14.80
2018-10-16T02:16:27.084Z,14.80
2018-10-16T02:18:55.614Z,14.90
2018-10-16T02:21:24.146Z,14.90
2018-10-16T02:23:52.628Z,14.80
2018-10-16T02:26:21.105Z,14.80
2018-10-16T02:28:49.594Z,14.80
2018-10-16T02:31:18.055Z,14.70
2018-10-16T02:33:46.765Z,14.70
2018-10-16T02:36:15.288Z,14.60
2018-10-16T02:38:43.947Z,14.60
2018-10-16T02:41:13.046Z,14.60
2018-10-16T02:43:41.872Z,14.60
2018-10-16T02:46:10.851Z,14.60
2018-10-16T02:48:39.665Z,14.60
2018-10-16T02:51:08.507Z,14.60
2018-10-16T02:53:37.025Z,14.50
2018-10-16T02:56:05.545Z,14.50
2018-10-16T02:58:34.019Z,14.50
2018-10-16T03:01:02.516Z,14.50
2018-10-16T03:03:35.030Z,14.50
2018-10-16T03:06:03.545Z,14.50
2018-10-16T03:08:32.079Z,14.50
2018-10-16T03:11:00.648Z,14.50
2018-10-16T03:13:29.107Z,14.50
2018-10-16T03:15:57.601Z,14.50
2018-10-16T03:18:26.139Z,14.40
2018-10-16T03:20:54.621Z,14.40
2018-10-16T03:23:23.095Z,14.40
2018-10-16T03:25:51.541Z,14.50
2018-10-16T03:28:20.001Z,14.60
2018-10-16T03:30:48.500Z,14.60
2018-10-16T03:33:16.954Z,14.70
2018-10-16T03:35:45.423Z,14.70
2018-10-16T03:38:13.930Z,14.60
2018-10-16T03:40:42.413Z,14.60
2018-10-16T03:43:10.895Z,14.60
2018-10-16T03:45:39.374Z,14.60
2018-10-16T03:48:07.909Z,14.50
2018-10-16T03:50:36.356Z,14.50
2018-10-16T03:53:05.469Z,14.50
2018-10-16T03:55:33.939Z,14.50
2018-10-16T03:58:02.704Z,14.40
2018-10-16T04:00:31.171Z,14.40
2018-10-16T04:02:59.654Z,14.40
2018-10-16T04:05:28.126Z,14.40
2018-10-16T04:07:56.606Z,14.50
2018-10-16T04:10:25.086Z,14.40
2018-10-16T04:12:53.628Z,14.30
2018-10-16T04:15:22.107Z,14.20
2018-10-16T04:17:50.644Z,14.20
2018-10-16T04:20:19.157Z,14.20
2018-10-16T04:22:47.635Z,14.30
2018-10-16T04:25:16.074Z,14.20
2018-10-16T04:27:44.524Z,14.10
2018-10-16T04:30:12.964Z,14.10
2018-10-16T04:32:41.405Z,14.20
2018-10-16T04:35:12.175Z,14.20
2018-10-16T04:37:40.635Z,14.20
2018-10-16T04:40:09.151Z,14.20
2018-10-16T04:42:37.613Z,14.10
2018-10-16T04:45:06.425Z,14.10
2018-10-16T04:47:34.956Z,14.00
2018-10-16T04:50:03.430Z,14.10
2018-10-16T04:52:31.934Z,14.10
2018-10-16T04:55:00.501Z,14.10
2018-10-16T04:57:28.897Z,14.20
2018-10-16T04:59:57.839Z,14.10
2018-10-16T05:02:26.301Z,14.20
2018-10-16T05:04:54.785Z,14.10
2018-10-16T05:07:23.249Z,14.10
2018-10-16T05:09:51.742Z,14.20
2018-10-16T05:12:20.270Z,14.20
2018-10-16T05:14:48.701Z,14.20
2018-10-16T05:17:17.169Z,14.20
2018-10-16T05:19:45.669Z,14.20
2018-10-16T05:22:14.115Z,14.30
2018-10-16T05:24:42.531Z,14.30
2018-10-16T05:27:10.983Z,14.30
2018-10-16T05:29:39.455Z,14.30
2018-10-16T05:32:07.968Z,14.20
2018-10-16T05:34:36.411Z,14.20
2018-10-16T05:37:05.284Z,14.10
2018-10-16T05:39:33.780Z,14.00
2018-10-16T05:42:02.308Z,13.90
2018-10-16T05:44:30.786Z,13.90
2018-10-16T05:46:59.440Z,14.00
2018-10-16T05:49:28.342Z,14.10
2018-10-16T05:51:56.859Z,14.20
2018-10-16T05:54:25.417Z,14.20
2018-10-16T05:56:53.929Z,14.10
2018-10-16T05:59:22.403Z,14.10
2018-10-16T06:01:51.148Z,14.20
2018-10-16T06:04:19.635Z,14.10
2018-10-16T06:06:48.135Z,14.20
2018-10-16T06:09:16.608Z,14.10
2018-10-16T06:11:45.068Z,14.20
2018-10-16T06:14:13.522Z,14.30
2018-10-16T06:16:41.967Z,14.30
2018-10-16T06:19:10.435Z,14.30
2018-10-16T06:21:38.879Z,14.30
2018-10-16T06:24:07.397Z,14.40
2018-10-16T06:26:36.001Z,14.30
2018-10-16T06:29:04.473Z,14.40
2018-10-16T06:31:33.077Z,14.40
2018-10-16T06:34:01.584Z,14.40
2018-10-16T06:36:30.093Z,14.40
2018-10-16T06:38:58.601Z,14.40
2018-10-16T06:41:27.112Z,14.40
2018-10-16T06:43:55.654Z,14.50
2018-10-16T06:46:24.278Z,14.50
2018-10-16T06:48:52.872Z,14.60
2018-10-16T06:51:21.148Z,14.70
2018-10-16T06:53:49.634Z,14.70
2018-10-16T06:56:18.146Z,14.80
2018-10-16T06:58:46.660Z,14.80
2018-10-16T07:01:15.265Z,14.80
2018-10-16T07:03:43.772Z,14.80
2018-10-16T07:06:12.264Z,14.80
2018-10-16T07:08:40.681Z,14.90
2018-10-16T07:11:09.264Z,14.90
2018-10-16T07:13:37.732Z,14.90
2018-10-16T07:16:06.593Z,14.90
2018-10-16T07:18:35.416Z,14.90
2018-10-16T07:21:04.020Z,14.90
2018-10-16T07:23:32.496Z,15.00
2018-10-16T07:26:01.013Z,15.00
2018-10-16T07:28:29.483Z,15.10
2018-10-16T07:30:57.950Z,15.20
2018-10-16T07:33:27.386Z,15.30
2018-10-16T07:35:55.926Z,15.30
2018-10-16T07:38:24.370Z,15.30
2018-10-16T07:40:52.834Z,15.30
2018-10-16T07:43:21.350Z,15.30
2018-10-16T07:45:49.809Z,15.20
2018-10-16T07:48:18.413Z,15.10
2018-10-16T07:50:46.818Z,15.00
2018-10-16T07:53:15.352Z,14.70
2018-10-16T07:55:43.844Z,14.70
2018-10-16T07:58:12.312Z,14.80
2018-10-16T08:00:40.744Z,14.90
2018-10-16T08:03:09.333Z,15.00
2018-10-16T08:05:37.833Z,15.10
2018-10-16T08:08:06.352Z,15.10
2018-10-16T08:10:34.942Z,15.30
2018-10-16T08:13:03.553Z,15.30
2018-10-16T08:15:32.125Z,15.30
2018-10-16T08:18:00.777Z,15.50
2018-10-16T08:20:30.230Z,15.80
2018-10-16T08:22:58.803Z,15.80
2018-10-16T08:25:27.339Z,15.90
2018-10-16T08:27:55.879Z,16.00
2018-10-16T08:30:24.386Z,16.50
2018-10-16T08:32:52.838Z,16.80
2018-10-16T08:35:21.283Z,16.60
2018-10-16T08:40:03.378Z,16.70
2018-10-16T08:44:51.560Z,16.90
2018-10-16T08:47:31.311Z,17.20
2018-10-16T08:50:10.876Z,17.10
2018-10-16T08:52:39.326Z,17.00
2018-10-16T08:55:07.853Z,17.20
2018-10-16T08:57:36.269Z,17.80
2018-10-16T09:00:05.224Z,18.40
2018-10-16T09:02:33.741Z,18.90
2018-10-16T09:05:02.322Z,19.00
2018-10-16T09:07:30.796Z,19.40
2018-10-16T09:09:59.372Z,19.90
2018-10-16T09:12:27.908Z,19.70
2018-10-16T09:14:56.406Z,20.00
2018-10-16T09:17:24.926Z,19.80
2018-10-16T09:19:53.518Z,19.80
2018-10-16T09:22:21.994Z,19.50
2018-10-16T09:24:50.497Z,19.80
2018-10-16T09:27:18.989Z,20.00
2018-10-16T09:29:47.544Z,19.80
2018-10-16T09:32:16.007Z,20.10
2018-10-16T09:34:44.536Z,20.50
2018-10-16T09:37:12.996Z,20.40
2018-10-16T09:39:41.490Z,20.70
2018-10-16T09:42:10.097Z,20.90
2018-10-16T09:44:38.578Z,21.40
2018-10-16T09:47:07.070Z,21.90
2018-10-16T09:49:35.761Z,21.90
2018-10-16T09:52:04.319Z,21.80
2018-10-16T09:54:32.797Z,22.10
2018-10-16T09:57:01.321Z,22.10
2018-10-16T09:59:29.898Z,21.90
2018-10-16T10:01:58.348Z,22.10
2018-10-16T10:04:26.883Z,22.20
2018-10-16T10:06:55.440Z,22.30
2018-10-16T10:09:23.935Z,22.30
2018-10-16T10:11:52.439Z,22.30
2018-10-16T10:14:21.014Z,22.60
2018-10-16T10:16:49.605Z,22.90
2018-10-16T10:19:18.100Z,23.10
2018-10-16T10:21:46.600Z,23.30
2018-10-16T10:24:15.061Z,23.20
2018-10-16T10:26:43.529Z,23.30
2018-10-16T10:29:12.005Z,23.40
2018-10-16T10:31:40.474Z,23.30
2018-10-16T10:34:08.999Z,23.40
2018-10-16T10:36:37.503Z,23.10
2018-10-16T10:39:09.295Z,23.10
2018-10-16T10:41:37.966Z,22.90
2018-10-16T10:44:06.925Z,22.90
2018-10-16T10:46:35.655Z,23.20
2018-10-16T10:49:04.415Z,23.30
2018-10-16T10:51:33.325Z,23.10
2018-10-16T10:54:01.547Z,23.20
2018-10-16T10:56:30.076Z,23.20
2018-10-16T10:58:58.624Z,23.30
2018-10-16T11:01:27.838Z,23.50
2018-10-16T11:03:56.325Z,23.50
2018-10-16T11:06:25.039Z,23.60
2018-10-16T11:08:53.499Z,23.80
2018-10-16T11:11:22.010Z,24.10
2018-10-16T11:13:50.518Z,24.30
2018-10-16T11:16:19.058Z,24.40
2018-10-16T11:18:47.539Z,24.50
2018-10-16T11:21:16.164Z,24.70
2018-10-16T11:23:44.646Z,25.20
2018-10-16T11:26:13.153Z,25.50
2018-10-16T11:28:41.611Z,25.20
2018-10-16T11:31:10.274Z,25.50
2018-10-16T11:33:38.811Z,25.90
2018-10-16T11:36:07.295Z,25.80
2018-10-16T11:38:35.770Z,25.40
2018-10-16T11:41:04.256Z,25.80
2018-10-16T11:43:32.744Z,25.80
2018-10-16T11:46:01.281Z,26.20
2018-10-16T11:48:29.733Z,26.60
2018-10-16T11:50:59.114Z,27.10
2018-10-16T11:53:27.647Z,27.50
2018-10-16T11:55:56.199Z,27.40
2018-10-16T11:58:24.639Z,27.50
2018-10-16T12:00:53.188Z,27.90
2018-10-16T12:03:21.709Z,28.00
2018-10-16T12:05:50.337Z,27.90
2018-10-16T12:08:18.838Z,28.10
2018-10-16T12:10:47.380Z,28.20
2018-10-16T12:13:15.887Z,28.40
2018-10-16T12:15:44.360Z,28.30
2018-10-16T12:18:19.368Z,27.70
2018-10-16T12:20:53.141Z,27.60
2018-10-16T12:23:21.574Z,28.00
2018-10-16T12:25:50.141Z,28.30
2018-10-16T12:28:18.670Z,28.30
2018-10-16T12:30:47.212Z,28.70
2018-10-16T12:33:15.820Z,28.60
2018-10-16T12:35:44.263Z,28.90
2018-10-16T12:38:12.724Z,27.90
2018-10-16T12:47:27.189Z,27.80
2018-10-16T12:49:55.670Z,27.60
2018-10-16T12:52:24.131Z,27.90
2018-10-16T12:54:52.601Z,28.10
2018-10-16T12:57:21.169Z,28.10
2018-10-16T12:59:49.623Z,27.60
2018-10-16T13:02:18.734Z,27.90
2018-10-16T13:04:47.271Z,27.90
2018-10-16T13:07:36.541Z,27.90
2018-10-16T13:10:10.007Z,27.60
2018-10-16T13:12:38.492Z,27.20
2018-10-16T13:15:08.501Z,27.20
2018-10-16T13:17:36.952Z,27.30
2018-10-16T13:20:06.144Z,27.20
2018-10-16T13:22:34.860Z,27.00
2018-10-16T13:25:03.337Z,26.60
2018-10-16T13:27:31.806Z,26.30
2018-10-16T13:30:00.369Z,26.40
2018-10-16T13:32:28.805Z,26.60
2018-10-16T13:34:57.452Z,26.70
2018-10-16T13:37:25.982Z,26.40
2018-10-16T13:39:54.472Z,26.70
2018-10-16T13:42:22.987Z,27.10
2018-10-16T13:44:51.459Z,27.40
2018-10-16T13:47:20.004Z,27.20
2018-10-16T13:49:48.445Z,26.90
2018-10-16T13:52:17.000Z,27.00
2018-10-16T13:54:45.539Z,27.30
2018-10-16T13:57:14.017Z,27.40
2018-10-16T13:59:42.475Z,27.50
2018-10-16T14:02:11.103Z,27.30
2018-10-16T14:04:39.767Z,26.90
2018-10-16T14:07:08.360Z,26.60
2018-10-16T14:09:36.936Z,26.60
2018-10-16T14:12:05.559Z,26.50
2018-10-16T14:14:34.028Z,26.50
2018-10-16T14:17:02.524Z,26.70
2018-10-16T14:19:30.989Z,26.70
2018-10-16T14:21:59.644Z,26.50
2018-10-16T14:24:28.153Z,26.80
2018-10-16T14:26:56.620Z,26.90
2018-10-16T14:29:25.154Z,26.80
2018-10-16T14:31:53.730Z,26.60
2018-10-16T14:34:22.487Z,26.30
2018-10-16T14:36:50.949Z,26.30
2018-10-16T14:39:19.485Z,26.20
2018-10-16T14:41:48.004Z,26.20
2018-10-16T14:44:16.524Z,26.00
2018-10-16T14:46:45.033Z,26.00
2018-10-16T14:49:13.490Z,25.90
2018-10-16T14:51:41.992Z,26.00
2018-10-16T14:54:10.450Z,26.00
2018-10-16T14:56:38.992Z,25.90
2018-10-16T14:59:07.575Z,25.70
2018-10-16T15:01:36.109Z,25.60
2018-10-16T15:04:05.095Z,25.50
2018-10-16T15:06:33.588Z,25.40
2018-10-16T15:09:02.122Z,25.30
2018-10-16T15:11:30.762Z,25.20
2018-10-16T15:13:59.456Z,25.10
2018-10-16T15:16:28.102Z,25.00
2018-10-16T15:18:56.611Z,25.10
2018-10-16T15:21:25.175Z,25.10
2018-10-16T15:23:53.869Z,25.00
2018-10-16T15:26:22.424Z,24.90
2018-10-16T15:28:51.012Z,24.90
2018-10-16T15:31:19.559Z,24.90
2018-10-16T15:33:48.073Z,24.80
2018-10-16T15:36:16.581Z,24.80
2018-10-16T15:38:45.085Z,24.70
2018-10-16T15:41:13.705Z,24.70
2018-10-16T15:43:42.217Z,24.60
2018-10-16T15:46:10.791Z,24.60
2018-10-16T15:48:39.264Z,24.50
2018-10-16T15:51:07.789Z,24.40
2018-10-16T15:53:36.308Z,24.40
2018-10-16T15:56:04.867Z,24.30
2018-10-16T15:58:33.304Z,24.20
2018-10-16T16:01:01.812Z,24.20
2018-10-16T16:03:30.381Z,24.20
2018-10-16T16:05:58.916Z,24.00
2018-10-16T16:08:27.536Z,24.00
2018-10-16T16:10:56.044Z,23.90
2018-10-16T16:13:24.610Z,23.90
2018-10-16T16:15:54.075Z,23.80
2018-10-16T16:18:22.625Z,23.70
2018-10-16T16:20:51.123Z,23.70
2018-10-16T16:23:19.671Z,23.70
2018-10-16T16:25:48.270Z,23.60
2018-10-16T16:28:16.800Z,23.50
2018-10-16T16:30:45.327Z,23.50
2018-10-16T16:33:13.889Z,23.40
2018-10-16T16:35:42.397Z,23.40
2018-10-16T16:38:10.942Z,23.30
2018-10-16T16:40:39.671Z,23.20
2018-10-16T16:43:08.195Z,23.10
2018-10-16T16:45:36.806Z,23.00
2018-10-16T16:48:05.357Z,23.00
2018-10-16T16:50:33.805Z,22.90
2018-10-16T16:53:02.317Z,22.80
2018-10-16T16:55:30.916Z,22.70
2018-10-16T16:57:59.448Z,22.60
2018-10-16T17:00:27.898Z,22.50
2018-10-16T17:02:56.375Z,22.40
2018-10-16T17:05:24.885Z,22.40
2018-10-16T17:07:53.417Z,22.30
2018-10-16T17:10:21.874Z,22.30
2018-10-16T17:12:50.344Z,22.20
2018-10-16T17:15:18.810Z,22.20
2018-10-16T17:17:47.464Z,22.20
2018-10-16T17:20:15.934Z,22.10
2018-10-16T17:22:44.458Z,22.00
2018-10-16T17:25:14.264Z,21.90
2018-10-16T17:27:43.425Z,21.90
2018-10-16T17:30:14.048Z,21.80
2018-10-16T17:32:43.316Z,21.80
2018-10-16T17:35:12.427Z,21.70
2018-10-16T17:37:41.531Z,21.60
2018-10-16T17:40:12.006Z,21.50
2018-10-16T17:42:40.608Z,21.50
2018-10-16T17:45:10.997Z,21.40
2018-10-16T17:47:39.489Z,21.30
2018-10-16T17:50:10.429Z,21.20
2018-10-16T17:52:39.042Z,21.20
2018-10-16T17:55:08.026Z,21.10
2018-10-16T17:57:36.934Z,21.00
2018-10-16T18:00:06.932Z,21.00
2018-10-16T18:02:35.445Z,21.00
2018-10-16T18:05:03.975Z,21.00
2018-10-16T18:07:32.435Z,21.00
2018-10-16T18:10:01.093Z,20.90
2018-10-16T18:12:29.588Z,20.80
2018-10-16T18:14:58.065Z,20.70
2018-10-16T18:17:26.575Z,20.60
2018-10-16T18:19:55.993Z,20.60
2018-10-16T18:22:24.511Z,20.60
2018-10-16T18:24:52.984Z,20.50
2018-10-16T18:27:21.459Z,20.50
2018-10-16T18:29:50.014Z,20.40
2018-10-16T18:32:18.548Z,20.40
2018-10-16T18:34:47.110Z,20.30
2018-10-16T18:37:15.567Z,20.30
2018-10-16T18:39:44.158Z,20.40
2018-10-16T18:42:12.530Z,20.40
2018-10-16T18:44:40.990Z,20.30
2018-10-16T18:47:09.493Z,20.20
2018-10-16T18:49:38.110Z,20.30
2018-10-16T18:52:06.607Z,20.30
2018-10-16T18:54:35.106Z,20.30
2018-10-16T18:57:03.582Z,20.20
2018-10-16T18:59:32.076Z,20.30
2018-10-16T19:02:00.669Z,20.30
2018-10-16T19:04:29.158Z,20.20
2018-10-16T19:06:57.724Z,20.10
2018-10-16T19:09:26.263Z,20.00
2018-10-16T19:11:54.789Z,19.80
2018-10-16T19:14:23.325Z,19.80
2018-10-16T19:16:51.843Z,19.80
2018-10-16T19:19:20.349Z,19.70
2018-10-16T19:21:48.804Z,19.70
2018-10-16T19:24:17.299Z,19.70
2018-10-16T19:26:45.823Z,19.70
2018-10-16T19:29:14.413Z,19.60
2018-10-16T19:31:42.944Z,19.70
2018-10-16T19:34:11.443Z,19.60
2018-10-16T19:36:39.991Z,19.60
2018-10-16T19:39:10.068Z,19.60
2018-10-16T19:41:38.751Z,19.60
2018-10-16T19:44:07.329Z,19.60
2018-10-16T19:46:36.692Z,19.50
2018-10-16T19:49:05.228Z,19.50
2018-10-16T19:51:33.865Z,19.50
2018-10-16T19:54:02.387Z,19.50
2018-10-16T19:56:30.858Z,19.60
2018-10-16T19:58:59.332Z,19.60
2018-10-16T20:01:28.062Z,19.60
2018-10-16T20:03:56.500Z,19.70
2018-10-16T20:06:25.856Z,19.70
2018-10-16T20:08:54.413Z,19.60
2018-10-16T20:11:22.865Z,19.70
2018-10-16T20:13:51.409Z,19.70
2018-10-16T20:16:19.881Z,19.60
2018-10-16T20:18:48.360Z,19.60
2018-10-16T20:21:16.865Z,19.70
2018-10-16T20:23:45.390Z,19.70
2018-10-16T20:26:13.930Z,19.70
2018-10-16T20:28:42.456Z,19.50
2018-10-16T20:31:11.020Z,19.50
2018-10-16T20:33:39.409Z,19.50
2018-10-16T20:36:07.889Z,19.40
2018-10-16T20:38:36.399Z,19.40
2018-10-16T20:41:05.255Z,19.30
2018-10-16T20:43:34.082Z,19.30
2018-10-16T20:46:02.586Z,19.30
2018-10-16T20:48:31.062Z,19.30
2018-10-16T20:50:59.536Z,19.30
2018-10-16T20:53:28.098Z,19.20
2018-10-16T20:55:56.564Z,19.10
2018-10-16T20:58:25.013Z,19.20
2018-10-16T21:00:53.749Z,19.10
2018-10-16T21:03:22.212Z,19.20
2018-10-16T21:05:50.939Z,19.30
2018-10-16T21:08:19.221Z,19.30
2018-10-16T21:10:47.702Z,19.30
2018-10-16T21:13:16.181Z,19.30
2018-10-16T21:15:44.705Z,19.20
2018-10-16T21:18:13.201Z,19.30
2018-10-16T21:20:41.652Z,19.30
2018-10-16T21:23:10.135Z,19.30
2018-10-16T21:25:38.569Z,19.10
2018-10-16T21:28:07.121Z,19.00
2018-10-16T21:30:35.612Z,18.90
2018-10-16T21:33:04.189Z,18.70
2018-10-16T21:35:32.703Z,18.60
2018-10-16T21:38:01.428Z,18.60
2018-10-16T21:40:30.083Z,18.60
2018-10-16T21:42:58.611Z,18.60
2018-10-16T21:45:27.277Z,18.50
2018-10-16T21:47:55.995Z,18.50
2018-10-16T21:50:24.763Z,18.40
2018-10-16T21:52:53.501Z,18.30
2018-10-16T21:55:22.511Z,18.30
2018-10-16T21:57:51.292Z,18.20
2018-10-16T22:00:25.517Z,18.20
2018-10-16T22:02:54.443Z,18.10
2018-10-16T22:05:23.795Z,18.20
2018-10-16T22:07:54.383Z,18.20
2018-10-16T22:10:24.172Z,18.10
2018-10-16T22:12:52.778Z,18.10
2018-10-16T22:15:21.718Z,18.10
2018-10-16T22:17:50.512Z,18.10
2018-10-16T22:20:19.016Z,18.10
2018-10-16T22:22:47.606Z,18.20
2018-10-16T22:25:16.291Z,18.10
2018-10-16T22:27:44.669Z,18.10
2018-10-16T22:30:13.127Z,18.20
2018-10-16T22:32:41.621Z,18.10
2018-10-16T22:35:11.202Z,17.90
2018-10-16T22:37:39.813Z,17.70
2018-10-16T22:40:09.322Z,17.80
2018-10-16T22:42:37.880Z,17.80
2018-10-16T22:45:07.170Z,17.90
2018-10-16T22:47:35.623Z,18.00
2018-10-16T22:50:04.623Z,17.90
2018-10-16T22:52:33.491Z,17.90
2018-10-16T22:55:02.072Z,17.80
2018-10-16T22:57:30.454Z,17.80
2018-10-16T22:59:58.903Z,17.80
2018-10-16T23:02:27.350Z,17.80
2018-10-16T23:04:55.898Z,17.70
2018-10-16T23:07:24.363Z,17.80
2018-10-16T23:09:52.858Z,17.90
2018-10-16T23:12:21.363Z,18.00
2018-10-16T23:14:49.827Z,18.00
2018-10-16T23:17:18.304Z,18.00
2018-10-16T23:19:46.764Z,18.00
2018-10-16T23:22:15.242Z,18.00
2018-10-16T23:24:44.200Z,17.90
2018-10-16T23:27:12.760Z,17.90
2018-10-16T23:29:41.212Z,17.90
2018-10-16T23:32:09.666Z,17.90
2018-10-16T23:34:38.140Z,17.90
2018-10-16T23:37:06.642Z,17.90
2018-10-16T23:39:35.107Z,17.90
2018-10-16T23:42:03.594Z,17.60
2018-10-16T23:44:32.036Z,17.60
2018-10-16T23:47:00.515Z,17.60
2018-10-16T23:49:29.018Z,17.60
2018-10-16T23:51:57.559Z,17.70
2018-10-16T23:54:26.029Z,17.70
2018-10-16T23:56:54.546Z,17.70
2018-10-16T23:59:23.009Z,17.60
